sensor_id;sensor_type;location;lat;lon;timestamp;pressure;altitude;pressure_sealevel;temperature
15062;BMP180;7630;50.306;8.566;2023-07-16T00:03:23;97547.00;;;20.20
15062;BMP180;7630;50.306;8.566;2023-07-16T00:07:24;97525.00;;;19.60
15062;BMP180;7630;50.306;8.566;2023-07-16T00:11:25;97520.00;;;20.00
15062;BMP180;7630;50.306;8.566;2023-07-16T00:15:27;97500.00;;;20.30
15062;BMP180;7630;50.306;8.566;2023-07-16T00:19:28;97492.00;;;20.10
15062;BMP180;7630;50.306;8.566;2023-07-16T00:23:29;97445.00;;;20.10
15062;BMP180;7630;50.306;8.566;2023-07-16T00:27:30;97530.00;;;20.40
15062;BMP180;7630;50.306;8.566;2023-07-16T00:31:31;97535.00;;;20.60
15062;BMP180;7630;50.306;8.566;2023-07-16T00:35:32;97536.00;;;20.20
15062;BMP180;7630;50.306;8.566;2023-07-16T00:39:33;97500.00;;;20.20
15062;BMP180;7630;50.306;8.566;2023-07-16T00:43:34;97497.00;;;20.70
15062;BMP180;7630;50.306;8.566;2023-07-16T00:47:35;97528.00;;;20.10
15062;BMP180;7630;50.306;8.566;2023-07-16T00:51:37;97532.00;;;20.10
15062;BMP180;7630;50.306;8.566;2023-07-16T00:55:38;97532.00;;;19.40
15062;BMP180;7630;50.306;8.566;2023-07-16T00:59:40;97542.00;;;19.50
15062;BMP180;7630;50.306;8.566;2023-07-16T01:03:41;97541.00;;;20.30
15062;BMP180;7630;50.306;8.566;2023-07-16T01:07:53;97518.00;;;20.50
15062;BMP180;7630;50.306;8.566;2023-07-16T01:11:48;97497.00;;;20.80
15062;BMP180;7630;50.306;8.566;2023-07-16T01:15:49;97529.00;;;20.30
15062;BMP180;7630;50.306;8.566;2023-07-16T01:19:50;97512.00;;;20.30
15062;BMP180;7630;50.306;8.566;2023-07-16T01:28:26;97525.00;;;20.20
15062;BMP180;7630;50.306;8.566;2023-07-16T01:32:25;97435.00;;;19.80
15062;BMP180;7630;50.306;8.566;2023-07-16T01:36:26;97543.00;;;19.80
15062;BMP180;7630;50.306;8.566;2023-07-16T01:40:30;97544.00;;;19.40
15062;BMP180;7630;50.306;8.566;2023-07-16T01:44:31;97561.00;;;19.80
15062;BMP180;7630;50.306;8.566;2023-07-16T01:48:34;97552.00;;;20.10
15062;BMP180;7630;50.306;8.566;2023-07-16T01:52:36;97574.00;;;20.40
15062;BMP180;7630;50.306;8.566;2023-07-16T01:56:37;97596.00;;;19.70
15062;BMP180;7630;50.306;8.566;2023-07-16T02:00:38;97610.00;;;19.80
15062;BMP180;7630;50.306;8.566;2023-07-16T02:04:40;97616.00;;;20.00
15062;BMP180;7630;50.306;8.566;2023-07-16T02:08:41;97616.00;;;19.90
15062;BMP180;7630;50.306;8.566;2023-07-16T02:12:42;97616.00;;;20.20
15062;BMP180;7630;50.306;8.566;2023-07-16T02:16:43;97615.00;;;20.20
15062;BMP180;7630;50.306;8.566;2023-07-16T02:20:44;97519.00;;;20.30
15062;BMP180;7630;50.306;8.566;2023-07-16T02:24:45;97626.00;;;20.40
15062;BMP180;7630;50.306;8.566;2023-07-16T02:28:47;97621.00;;;20.60
15062;BMP180;7630;50.306;8.566;2023-07-16T02:32:48;97624.00;;;20.60
15062;BMP180;7630;50.306;8.566;2023-07-16T02:36:49;97632.00;;;20.70
15062;BMP180;7630;50.306;8.566;2023-07-16T02:40:50;97632.00;;;21.00
15062;BMP180;7630;50.306;8.566;2023-07-16T02:44:51;97646.00;;;20.40
15062;BMP180;7630;50.306;8.566;2023-07-16T02:48:52;97644.00;;;20.60
15062;BMP180;7630;50.306;8.566;2023-07-16T02:52:53;97657.00;;;20.60
15062;BMP180;7630;50.306;8.566;2023-07-16T02:56:55;97658.00;;;19.30
15062;BMP180;7630;50.306;8.566;2023-07-16T03:00:56;97654.00;;;19.40
15062;BMP180;7630;50.306;8.566;2023-07-16T03:04:57;97661.00;;;19.40
15062;BMP180;7630;50.306;8.566;2023-07-16T03:08:58;97673.00;;;19.10
15062;BMP180;7630;50.306;8.566;2023-07-16T03:12:59;97673.00;;;19.10
15062;BMP180;7630;50.306;8.566;2023-07-16T03:17:00;97666.00;;;19.70
15062;BMP180;7630;50.306;8.566;2023-07-16T03:21:01;97669.00;;;19.90
15062;BMP180;7630;50.306;8.566;2023-07-16T03:25:03;97673.00;;;18.90
15062;BMP180;7630;50.306;8.566;2023-07-16T03:29:04;97671.00;;;19.30
15062;BMP180;7630;50.306;8.566;2023-07-16T03:33:05;97690.00;;;19.40
15062;BMP180;7630;50.306;8.566;2023-07-16T03:37:06;97681.00;;;18.20
15062;BMP180;7630;50.306;8.566;2023-07-16T03:41:07;97690.00;;;17.60
15062;BMP180;7630;50.306;8.566;2023-07-16T03:45:10;97692.00;;;18.60
15062;BMP180;7630;50.306;8.566;2023-07-16T03:49:11;97697.00;;;19.20
15062;BMP180;7630;50.306;8.566;2023-07-16T03:53:13;97704.00;;;18.80
15062;BMP180;7630;50.306;8.566;2023-07-16T03:57:14;97701.00;;;17.80
15062;BMP180;7630;50.306;8.566;2023-07-16T04:01:15;97713.00;;;19.90
15062;BMP180;7630;50.306;8.566;2023-07-16T04:05:16;97699.00;;;18.00
15062;BMP180;7630;50.306;8.566;2023-07-16T04:09:18;97708.00;;;18.70
15062;BMP180;7630;50.306;8.566;2023-07-16T04:13:19;97711.00;;;20.30
15062;BMP180;7630;50.306;8.566;2023-07-16T04:17:20;97714.00;;;20.90
15062;BMP180;7630;50.306;8.566;2023-07-16T04:21:21;97702.00;;;19.30
15062;BMP180;7630;50.306;8.566;2023-07-16T04:25:23;97721.00;;;20.30
15062;BMP180;7630;50.306;8.566;2023-07-16T04:29:24;97718.00;;;20.50
15062;BMP180;7630;50.306;8.566;2023-07-16T04:33:25;97715.00;;;20.80
15062;BMP180;7630;50.306;8.566;2023-07-16T04:37:26;97718.00;;;20.60
15062;BMP180;7630;50.306;8.566;2023-07-16T04:41:28;97732.00;;;20.40
15062;BMP180;7630;50.306;8.566;2023-07-16T04:45:29;97736.00;;;20.00
15062;BMP180;7630;50.306;8.566;2023-07-16T04:49:31;97758.00;;;20.30
15062;BMP180;7630;50.306;8.566;2023-07-16T04:53:32;97755.00;;;20.90
15062;BMP180;7630;50.306;8.566;2023-07-16T04:57:33;97758.00;;;20.30
15062;BMP180;7630;50.306;8.566;2023-07-16T05:01:35;97761.00;;;20.30
15062;BMP180;7630;50.306;8.566;2023-07-16T05:05:36;97760.00;;;19.60
15062;BMP180;7630;50.306;8.566;2023-07-16T05:09:37;97772.00;;;19.80
15062;BMP180;7630;50.306;8.566;2023-07-16T05:13:38;97774.00;;;19.60
15062;BMP180;7630;50.306;8.566;2023-07-16T05:17:39;97774.00;;;19.10
15062;BMP180;7630;50.306;8.566;2023-07-16T05:21:41;97784.00;;;19.60
15062;BMP180;7630;50.306;8.566;2023-07-16T05:25:49;97782.00;;;19.30
15062;BMP180;7630;50.306;8.566;2023-07-16T05:29:50;97784.00;;;18.90
15062;BMP180;7630;50.306;8.566;2023-07-16T05:33:52;97786.00;;;19.70
15062;BMP180;7630;50.306;8.566;2023-07-16T05:37:53;97791.00;;;20.20
15062;BMP180;7630;50.306;8.566;2023-07-16T05:41:54;97792.00;;;19.50
15062;BMP180;7630;50.306;8.566;2023-07-16T05:45:55;97805.00;;;19.90
15062;BMP180;7630;50.306;8.566;2023-07-16T05:49:56;97810.00;;;20.10
15062;BMP180;7630;50.306;8.566;2023-07-16T05:53:58;97815.00;;;20.00
15062;BMP180;7630;50.306;8.566;2023-07-16T05:57:59;97812.00;;;20.20
15062;BMP180;7630;50.306;8.566;2023-07-16T06:02:00;97822.00;;;22.20
15062;BMP180;7630;50.306;8.566;2023-07-16T06:06:01;97833.00;;;23.50
15062;BMP180;7630;50.306;8.566;2023-07-16T06:10:04;97834.00;;;23.60
15062;BMP180;7630;50.306;8.566;2023-07-16T06:14:05;97836.00;;;24.40
15062;BMP180;7630;50.306;8.566;2023-07-16T06:18:06;97836.00;;;23.80
15062;BMP180;7630;50.306;8.566;2023-07-16T06:22:07;97832.00;;;26.10
15062;BMP180;7630;50.306;8.566;2023-07-16T06:26:09;97839.00;;;23.60
15062;BMP180;7630;50.306;8.566;2023-07-16T06:30:11;97837.00;;;23.70
15062;BMP180;7630;50.306;8.566;2023-07-16T06:34:12;97853.00;;;22.80
15062;BMP180;7630;50.306;8.566;2023-07-16T06:38:14;97841.00;;;22.10
15062;BMP180;7630;50.306;8.566;2023-07-16T06:42:15;97846.00;;;22.10
15062;BMP180;7630;50.306;8.566;2023-07-16T06:46:16;97850.00;;;22.50
15062;BMP180;7630;50.306;8.566;2023-07-16T06:50:18;97845.00;;;21.00
15062;BMP180;7630;50.306;8.566;2023-07-16T06:54:19;97845.00;;;21.90
15062;BMP180;7630;50.306;8.566;2023-07-16T06:58:30;97860.00;;;22.30
15062;BMP180;7630;50.306;8.566;2023-07-16T07:02:26;97856.00;;;21.80
15062;BMP180;7630;50.306;8.566;2023-07-16T07:06:28;97844.00;;;21.10
15062;BMP180;7630;50.306;8.566;2023-07-16T07:10:30;97859.00;;;21.40
15062;BMP180;7630;50.306;8.566;2023-07-16T07:14:33;97860.00;;;22.20
15062;BMP180;7630;50.306;8.566;2023-07-16T07:18:34;97865.00;;;22.10
15062;BMP180;7630;50.306;8.566;2023-07-16T07:22:35;97850.00;;;22.50
15062;BMP180;7630;50.306;8.566;2023-07-16T07:26:36;97856.00;;;22.10
15062;BMP180;7630;50.306;8.566;2023-07-16T07:30:37;97857.00;;;22.20
15062;BMP180;7630;50.306;8.566;2023-07-16T07:34:39;97853.00;;;22.30
15062;BMP180;7630;50.306;8.566;2023-07-16T07:38:40;97872.00;;;22.60
15062;BMP180;7630;50.306;8.566;2023-07-16T07:42:41;97865.00;;;23.80
15062;BMP180;7630;50.306;8.566;2023-07-16T07:46:42;97870.00;;;22.80
15062;BMP180;7630;50.306;8.566;2023-07-16T07:50:46;97860.00;;;22.40
15062;BMP180;7630;50.306;8.566;2023-07-16T07:54:49;97870.00;;;22.60
15062;BMP180;7630;50.306;8.566;2023-07-16T07:58:51;97871.00;;;23.50
15062;BMP180;7630;50.306;8.566;2023-07-16T08:02:52;97861.00;;;23.30
15062;BMP180;7630;50.306;8.566;2023-07-16T08:06:54;97869.00;;;22.60
15062;BMP180;7630;50.306;8.566;2023-07-16T08:10:55;97872.00;;;23.40
15062;BMP180;7630;50.306;8.566;2023-07-16T08:14:58;97886.00;;;23.00
15062;BMP180;7630;50.306;8.566;2023-07-16T08:18:59;97873.00;;;23.60
15062;BMP180;7630;50.306;8.566;2023-07-16T08:23:00;97877.00;;;24.40
15062;BMP180;7630;50.306;8.566;2023-07-16T08:27:01;97894.00;;;23.90
15062;BMP180;7630;50.306;8.566;2023-07-16T08:31:02;97884.00;;;22.80
15062;BMP180;7630;50.306;8.566;2023-07-16T08:35:03;97869.00;;;23.20
15062;BMP180;7630;50.306;8.566;2023-07-16T08:39:05;97882.00;;;24.30
15062;BMP180;7630;50.306;8.566;2023-07-16T08:43:06;97888.00;;;23.80
15062;BMP180;7630;50.306;8.566;2023-07-16T08:47:09;97898.00;;;23.10
15062;BMP180;7630;50.306;8.566;2023-07-16T08:51:10;97885.00;;;23.00
15062;BMP180;7630;50.306;8.566;2023-07-16T08:55:12;97888.00;;;23.50
15062;BMP180;7630;50.306;8.566;2023-07-16T08:59:14;97897.00;;;23.60
15062;BMP180;7630;50.306;8.566;2023-07-16T09:03:16;97893.00;;;23.40
15062;BMP180;7630;50.306;8.566;2023-07-16T09:07:17;97892.00;;;23.20
15062;BMP180;7630;50.306;8.566;2023-07-16T09:11:20;97890.00;;;23.20
15062;BMP180;7630;50.306;8.566;2023-07-16T09:15:22;97893.00;;;24.10
15062;BMP180;7630;50.306;8.566;2023-07-16T09:19:25;97904.00;;;23.70
15062;BMP180;7630;50.306;8.566;2023-07-16T09:23:27;97905.00;;;24.00
15062;BMP180;7630;50.306;8.566;2023-07-16T09:27:29;97905.00;;;25.20
15062;BMP180;7630;50.306;8.566;2023-07-16T09:31:30;97909.00;;;24.90
15062;BMP180;7630;50.306;8.566;2023-07-16T09:35:33;97906.00;;;24.40
15062;BMP180;7630;50.306;8.566;2023-07-16T09:39:37;97899.00;;;25.10
15062;BMP180;7630;50.306;8.566;2023-07-16T09:43:39;97900.00;;;23.70
15062;BMP180;7630;50.306;8.566;2023-07-16T09:47:41;97911.00;;;24.40
15062;BMP180;7630;50.306;8.566;2023-07-16T09:51:45;97898.00;;;24.10
15062;BMP180;7630;50.306;8.566;2023-07-16T09:55:48;97899.00;;;24.50
15062;BMP180;7630;50.306;8.566;2023-07-16T09:59:50;97905.00;;;24.40
15062;BMP180;7630;50.306;8.566;2023-07-16T10:03:53;97911.00;;;25.20
15062;BMP180;7630;50.306;8.566;2023-07-16T10:07:57;97904.00;;;24.40
15062;BMP180;7630;50.306;8.566;2023-07-16T10:16:21;97917.00;;;24.70
15062;BMP180;7630;50.306;8.566;2023-07-16T10:20:35;97903.00;;;24.30
15062;BMP180;7630;50.306;8.566;2023-07-16T10:24:39;97898.00;;;24.70
15062;BMP180;7630;50.306;8.566;2023-07-16T10:28:40;97909.00;;;24.80
15062;BMP180;7630;50.306;8.566;2023-07-16T10:32:41;97911.00;;;24.40
15062;BMP180;7630;50.306;8.566;2023-07-16T10:36:43;97906.00;;;24.90
15062;BMP180;7630;50.306;8.566;2023-07-16T10:40:45;97910.00;;;25.30
15062;BMP180;7630;50.306;8.566;2023-07-16T10:44:54;97912.00;;;24.60
15062;BMP180;7630;50.306;8.566;2023-07-16T10:48:56;97908.00;;;25.50
15062;BMP180;7630;50.306;8.566;2023-07-16T10:52:57;97906.00;;;24.40
15062;BMP180;7630;50.306;8.566;2023-07-16T10:56:58;97901.00;;;24.80
15062;BMP180;7630;50.306;8.566;2023-07-16T11:00:59;97908.00;;;24.80
15062;BMP180;7630;50.306;8.566;2023-07-16T11:05:02;97910.00;;;24.80
15062;BMP180;7630;50.306;8.566;2023-07-16T11:09:10;97907.00;;;25.40
15062;BMP180;7630;50.306;8.566;2023-07-16T11:13:11;97917.00;;;25.50
15062;BMP180;7630;50.306;8.566;2023-07-16T11:17:13;97918.00;;;25.10
15062;BMP180;7630;50.306;8.566;2023-07-16T11:21:19;97917.00;;;25.90
15062;BMP180;7630;50.306;8.566;2023-07-16T11:25:23;97924.00;;;25.00
15062;BMP180;7630;50.306;8.566;2023-07-16T11:29:24;97914.00;;;25.20
15062;BMP180;7630;50.306;8.566;2023-07-16T11:33:34;97915.00;;;26.50
15062;BMP180;7630;50.306;8.566;2023-07-16T11:37:32;97915.00;;;25.50
15062;BMP180;7630;50.306;8.566;2023-07-16T11:41:33;97920.00;;;25.90
15062;BMP180;7630;50.306;8.566;2023-07-16T11:45:35;97913.00;;;26.00
15062;BMP180;7630;50.306;8.566;2023-07-16T11:49:36;97905.00;;;26.30
15062;BMP180;7630;50.306;8.566;2023-07-16T11:53:38;97907.00;;;25.40
15062;BMP180;7630;50.306;8.566;2023-07-16T11:57:40;97912.00;;;26.50
15062;BMP180;7630;50.306;8.566;2023-07-16T12:01:41;97900.00;;;25.50
15062;BMP180;7630;50.306;8.566;2023-07-16T12:05:43;97898.00;;;25.60
15062;BMP180;7630;50.306;8.566;2023-07-16T12:09:46;97898.00;;;25.40
15062;BMP180;7630;50.306;8.566;2023-07-16T12:13:47;97909.00;;;25.90
15062;BMP180;7630;50.306;8.566;2023-07-16T12:17:48;97895.00;;;26.40
15062;BMP180;7630;50.306;8.566;2023-07-16T12:21:50;97895.00;;;26.40
15062;BMP180;7630;50.306;8.566;2023-07-16T12:25:53;97894.00;;;26.20
15062;BMP180;7630;50.306;8.566;2023-07-16T12:29:54;97893.00;;;25.70
15062;BMP180;7630;50.306;8.566;2023-07-16T12:33:55;97895.00;;;25.70
15062;BMP180;7630;50.306;8.566;2023-07-16T12:37:56;97888.00;;;27.20
15062;BMP180;7630;50.306;8.566;2023-07-16T12:41:59;97900.00;;;27.40
15062;BMP180;7630;50.306;8.566;2023-07-16T12:46:03;97906.00;;;27.90
15062;BMP180;7630;50.306;8.566;2023-07-16T12:50:05;97903.00;;;27.60
15062;BMP180;7630;50.306;8.566;2023-07-16T12:54:06;97897.00;;;27.20
15062;BMP180;7630;50.306;8.566;2023-07-16T12:58:07;97906.00;;;28.30
15062;BMP180;7630;50.306;8.566;2023-07-16T13:02:08;97924.00;;;29.20
15062;BMP180;7630;50.306;8.566;2023-07-16T13:06:09;97925.00;;;27.60
15062;BMP180;7630;50.306;8.566;2023-07-16T13:10:11;97921.00;;;29.20
15062;BMP180;7630;50.306;8.566;2023-07-16T13:14:14;97926.00;;;29.90
15062;BMP180;7630;50.306;8.566;2023-07-16T13:18:15;97918.00;;;29.30
15062;BMP180;7630;50.306;8.566;2023-07-16T13:22:17;97920.00;;;29.40
15062;BMP180;7630;50.306;8.566;2023-07-16T13:26:18;97920.00;;;29.90
15062;BMP180;7630;50.306;8.566;2023-07-16T13:30:20;97919.00;;;29.70
15062;BMP180;7630;50.306;8.566;2023-07-16T13:34:21;97920.00;;;29.50
15062;BMP180;7630;50.306;8.566;2023-07-16T13:38:22;97922.00;;;27.80
15062;BMP180;7630;50.306;8.566;2023-07-16T13:42:24;97925.00;;;27.70
15062;BMP180;7630;50.306;8.566;2023-07-16T13:46:25;97916.00;;;27.70
15062;BMP180;7630;50.306;8.566;2023-07-16T13:50:26;97916.00;;;27.00
15062;BMP180;7630;50.306;8.566;2023-07-16T13:54:27;97909.00;;;27.00
15062;BMP180;7630;50.306;8.566;2023-07-16T13:58:29;97914.00;;;26.10
15062;BMP180;7630;50.306;8.566;2023-07-16T14:02:30;97924.00;;;26.40
15062;BMP180;7630;50.306;8.566;2023-07-16T14:06:32;97925.00;;;26.50
15062;BMP180;7630;50.306;8.566;2023-07-16T14:10:33;97919.00;;;27.90
15062;BMP180;7630;50.306;8.566;2023-07-16T14:14:35;97932.00;;;26.50
15062;BMP180;7630;50.306;8.566;2023-07-16T14:18:36;97929.00;;;27.10
15062;BMP180;7630;50.306;8.566;2023-07-16T14:22:37;97925.00;;;27.60
15062;BMP180;7630;50.306;8.566;2023-07-16T14:26:38;97927.00;;;27.20
15062;BMP180;7630;50.306;8.566;2023-07-16T14:30:40;97941.00;;;26.20
15062;BMP180;7630;50.306;8.566;2023-07-16T14:34:41;97934.00;;;26.30
15062;BMP180;7630;50.306;8.566;2023-07-16T14:38:42;97921.00;;;26.30
15062;BMP180;7630;50.306;8.566;2023-07-16T14:42:44;97918.00;;;27.00
15062;BMP180;7630;50.306;8.566;2023-07-16T14:46:45;97916.00;;;26.50
15062;BMP180;7630;50.306;8.566;2023-07-16T14:50:48;97914.00;;;27.20
15062;BMP180;7630;50.306;8.566;2023-07-16T14:54:50;97918.00;;;26.90
15062;BMP180;7630;50.306;8.566;2023-07-16T14:58:51;97900.00;;;27.20
15062;BMP180;7630;50.306;8.566;2023-07-16T15:02:52;97910.00;;;27.20
15062;BMP180;7630;50.306;8.566;2023-07-16T15:06:53;97910.00;;;27.50
15062;BMP180;7630;50.306;8.566;2023-07-16T15:10:59;97899.00;;;27.10
15062;BMP180;7630;50.306;8.566;2023-07-16T15:15:00;97900.00;;;25.50
15062;BMP180;7630;50.306;8.566;2023-07-16T15:19:01;97906.00;;;26.10
15062;BMP180;7630;50.306;8.566;2023-07-16T15:23:03;97901.00;;;27.30
15062;BMP180;7630;50.306;8.566;2023-07-16T15:27:05;97908.00;;;26.40
15062;BMP180;7630;50.306;8.566;2023-07-16T15:31:06;97913.00;;;26.90
15062;BMP180;7630;50.306;8.566;2023-07-16T15:35:08;97914.00;;;27.40
15062;BMP180;7630;50.306;8.566;2023-07-16T15:39:09;97899.00;;;27.30
15062;BMP180;7630;50.306;8.566;2023-07-16T15:43:11;97904.00;;;26.00
15062;BMP180;7630;50.306;8.566;2023-07-16T15:47:12;97911.00;;;26.30
15062;BMP180;7630;50.306;8.566;2023-07-16T15:51:13;97898.00;;;25.90
15062;BMP180;7630;50.306;8.566;2023-07-16T15:55:15;97902.00;;;26.70
15062;BMP180;7630;50.306;8.566;2023-07-16T15:59:16;97908.00;;;28.00
15062;BMP180;7630;50.306;8.566;2023-07-16T16:03:18;97909.00;;;26.50
15062;BMP180;7630;50.306;8.566;2023-07-16T16:07:19;97899.00;;;28.00
15062;BMP180;7630;50.306;8.566;2023-07-16T16:11:20;97898.00;;;27.20
15062;BMP180;7630;50.306;8.566;2023-07-16T16:15:22;97900.00;;;27.00
15062;BMP180;7630;50.306;8.566;2023-07-16T16:19:24;97894.00;;;26.20
15062;BMP180;7630;50.306;8.566;2023-07-16T16:23:25;97900.00;;;26.20
15062;BMP180;7630;50.306;8.566;2023-07-16T16:27:27;97900.00;;;26.50
15062;BMP180;7630;50.306;8.566;2023-07-16T16:31:28;97898.00;;;26.90
15062;BMP180;7630;50.306;8.566;2023-07-16T16:35:37;97887.00;;;26.70
15062;BMP180;7630;50.306;8.566;2023-07-16T16:39:39;97890.00;;;26.30
15062;BMP180;7630;50.306;8.566;2023-07-16T16:43:40;97896.00;;;26.00
15062;BMP180;7630;50.306;8.566;2023-07-16T16:47:41;97888.00;;;26.30
15062;BMP180;7630;50.306;8.566;2023-07-16T16:51:42;97889.00;;;26.40
15062;BMP180;7630;50.306;8.566;2023-07-16T16:55:43;97890.00;;;26.70
15062;BMP180;7630;50.306;8.566;2023-07-16T16:59:45;97888.00;;;26.50
15062;BMP180;7630;50.306;8.566;2023-07-16T17:03:46;97889.00;;;26.50
15062;BMP180;7630;50.306;8.566;2023-07-16T17:07:47;97895.00;;;25.50
15062;BMP180;7630;50.306;8.566;2023-07-16T17:11:48;97899.00;;;25.80
15062;BMP180;7630;50.306;8.566;2023-07-16T17:15:49;97901.00;;;25.60
15062;BMP180;7630;50.306;8.566;2023-07-16T17:19:53;97892.00;;;25.60
15062;BMP180;7630;50.306;8.566;2023-07-16T17:23:54;97900.00;;;25.90
15062;BMP180;7630;50.306;8.566;2023-07-16T17:27:56;97896.00;;;25.10
15062;BMP180;7630;50.306;8.566;2023-07-16T17:31:57;97902.00;;;24.70
15062;BMP180;7630;50.306;8.566;2023-07-16T17:35:59;97904.00;;;24.80
15062;BMP180;7630;50.306;8.566;2023-07-16T17:40:00;97905.00;;;24.60
15062;BMP180;7630;50.306;8.566;2023-07-16T17:44:02;97905.00;;;24.90
15062;BMP180;7630;50.306;8.566;2023-07-16T17:48:04;97906.00;;;25.40
15062;BMP180;7630;50.306;8.566;2023-07-16T17:52:06;97896.00;;;24.30
15062;BMP180;7630;50.306;8.566;2023-07-16T17:56:07;97911.00;;;25.00
15062;BMP180;7630;50.306;8.566;2023-07-16T18:00:09;97909.00;;;25.30
15062;BMP180;7630;50.306;8.566;2023-07-16T18:04:13;97916.00;;;25.00
15062;BMP180;7630;50.306;8.566;2023-07-16T18:08:14;97917.00;;;25.50
15062;BMP180;7630;50.306;8.566;2023-07-16T18:12:16;97911.00;;;25.30
15062;BMP180;7630;50.306;8.566;2023-07-16T18:16:17;97912.00;;;25.60
15062;BMP180;7630;50.306;8.566;2023-07-16T18:20:19;97912.00;;;25.50
15062;BMP180;7630;50.306;8.566;2023-07-16T18:24:21;97912.00;;;24.70
15062;BMP180;7630;50.306;8.566;2023-07-16T18:28:22;97921.00;;;25.20
15062;BMP180;7630;50.306;8.566;2023-07-16T18:32:23;97923.00;;;24.50
15062;BMP180;7630;50.306;8.566;2023-07-16T18:36:24;97917.00;;;24.50
15062;BMP180;7630;50.306;8.566;2023-07-16T18:40:26;97920.00;;;24.90
15062;BMP180;7630;50.306;8.566;2023-07-16T18:44:27;97925.00;;;24.50
15062;BMP180;7630;50.306;8.566;2023-07-16T18:48:30;97924.00;;;24.80
15062;BMP180;7630;50.306;8.566;2023-07-16T18:52:31;97931.00;;;25.00
15062;BMP180;7630;50.306;8.566;2023-07-16T18:56:32;97935.00;;;24.60
15062;BMP180;7630;50.306;8.566;2023-07-16T19:00:35;97935.00;;;24.70
15062;BMP180;7630;50.306;8.566;2023-07-16T19:04:36;97936.00;;;24.40
15062;BMP180;7630;50.306;8.566;2023-07-16T19:08:37;97934.00;;;24.40
15062;BMP180;7630;50.306;8.566;2023-07-16T19:12:38;97939.00;;;24.20
15062;BMP180;7630;50.306;8.566;2023-07-16T19:16:40;97943.00;;;24.00
15062;BMP180;7630;50.306;8.566;2023-07-16T19:20:41;97948.00;;;24.10
15062;BMP180;7630;50.306;8.566;2023-07-16T19:24:42;97945.00;;;23.90
15062;BMP180;7630;50.306;8.566;2023-07-16T19:28:43;97948.00;;;23.70
15062;BMP180;7630;50.306;8.566;2023-07-16T19:32:44;97955.00;;;23.40
15062;BMP180;7630;50.306;8.566;2023-07-16T19:36:46;97957.00;;;23.30
15062;BMP180;7630;50.306;8.566;2023-07-16T19:40:47;97967.00;;;23.30
15062;BMP180;7630;50.306;8.566;2023-07-16T19:44:49;97957.00;;;23.20
15062;BMP180;7630;50.306;8.566;2023-07-16T19:48:51;97961.00;;;23.00
15062;BMP180;7630;50.306;8.566;2023-07-16T19:52:53;97970.00;;;22.30
15062;BMP180;7630;50.306;8.566;2023-07-16T19:56:55;97971.00;;;23.00
15062;BMP180;7630;50.306;8.566;2023-07-16T20:00:56;97972.00;;;23.00
15062;BMP180;7630;50.306;8.566;2023-07-16T20:04:58;97986.00;;;22.90
15062;BMP180;7630;50.306;8.566;2023-07-16T20:09:00;97989.00;;;22.80
15062;BMP180;7630;50.306;8.566;2023-07-16T20:13:01;97992.00;;;22.50
15062;BMP180;7630;50.306;8.566;2023-07-16T20:17:02;97989.00;;;22.40
15062;BMP180;7630;50.306;8.566;2023-07-16T20:21:03;97997.00;;;22.30
15062;BMP180;7630;50.306;8.566;2023-07-16T20:25:07;97993.00;;;21.60
15062;BMP180;7630;50.306;8.566;2023-07-16T20:29:09;97989.00;;;21.70
15062;BMP180;7630;50.306;8.566;2023-07-16T20:33:11;97994.00;;;21.50
15062;BMP180;7630;50.306;8.566;2023-07-16T20:37:12;97985.00;;;21.40
15062;BMP180;7630;50.306;8.566;2023-07-16T20:41:13;97991.00;;;21.50
15062;BMP180;7630;50.306;8.566;2023-07-16T20:45:21;97989.00;;;21.50
15062;BMP180;7630;50.306;8.566;2023-07-16T20:49:23;97991.00;;;21.40
15062;BMP180;7630;50.306;8.566;2023-07-16T20:53:24;97989.00;;;21.30
15062;BMP180;7630;50.306;8.566;2023-07-16T20:57:25;97990.00;;;21.10
15062;BMP180;7630;50.306;8.566;2023-07-16T21:01:26;97991.00;;;21.40
15062;BMP180;7630;50.306;8.566;2023-07-16T21:05:28;97989.00;;;21.40
15062;BMP180;7630;50.306;8.566;2023-07-16T21:09:29;97988.00;;;21.50
15062;BMP180;7630;50.306;8.566;2023-07-16T21:13:30;97993.00;;;20.90
15062;BMP180;7630;50.306;8.566;2023-07-16T21:17:32;97992.00;;;21.00
15062;BMP180;7630;50.306;8.566;2023-07-16T21:21:33;97993.00;;;21.20
15062;BMP180;7630;50.306;8.566;2023-07-16T21:25:34;97988.00;;;21.30
15062;BMP180;7630;50.306;8.566;2023-07-16T21:29:35;97994.00;;;21.30
15062;BMP180;7630;50.306;8.566;2023-07-16T21:33:36;97995.00;;;21.10
15062;BMP180;7630;50.306;8.566;2023-07-16T21:37:37;98000.00;;;20.90
15062;BMP180;7630;50.306;8.566;2023-07-16T21:41:39;97994.00;;;20.90
15062;BMP180;7630;50.306;8.566;2023-07-16T21:45:40;98003.00;;;20.90
15062;BMP180;7630;50.306;8.566;2023-07-16T21:49:41;98001.00;;;20.60
15062;BMP180;7630;50.306;8.566;2023-07-16T21:53:42;98004.00;;;20.60
15062;BMP180;7630;50.306;8.566;2023-07-16T21:57:43;98018.00;;;20.60
15062;BMP180;7630;50.306;8.566;2023-07-16T22:01:45;98009.00;;;20.60
15062;BMP180;7630;50.306;8.566;2023-07-16T22:05:46;98015.00;;;20.30
15062;BMP180;7630;50.306;8.566;2023-07-16T22:09:47;98015.00;;;20.20
15062;BMP180;7630;50.306;8.566;2023-07-16T22:13:49;98015.00;;;20.10
15062;BMP180;7630;50.306;8.566;2023-07-16T22:17:50;98016.00;;;20.30
15062;BMP180;7630;50.306;8.566;2023-07-16T22:21:52;98018.00;;;20.20
15062;BMP180;7630;50.306;8.566;2023-07-16T22:25:53;98015.00;;;20.10
15062;BMP180;7630;50.306;8.566;2023-07-16T22:29:55;98013.00;;;20.00
15062;BMP180;7630;50.306;8.566;2023-07-16T22:33:56;98015.00;;;20.00
15062;BMP180;7630;50.306;8.566;2023-07-16T22:37:57;98012.00;;;20.00
15062;BMP180;7630;50.306;8.566;2023-07-16T22:41:58;98014.00;;;20.00
15062;BMP180;7630;50.306;8.566;2023-07-16T22:45:59;98011.00;;;20.20
15062;BMP180;7630;50.306;8.566;2023-07-16T22:50:01;98016.00;;;20.00
15062;BMP180;7630;50.306;8.566;2023-07-16T22:54:02;98017.00;;;20.20
15062;BMP180;7630;50.306;8.566;2023-07-16T22:58:06;98008.00;;;20.10
15062;BMP180;7630;50.306;8.566;2023-07-16T23:02:07;98006.00;;;20.40
15062;BMP180;7630;50.306;8.566;2023-07-16T23:06:08;98010.00;;;20.40
15062;BMP180;7630;50.306;8.566;2023-07-16T23:10:11;98014.00;;;20.50
15062;BMP180;7630;50.306;8.566;2023-07-16T23:14:13;98012.00;;;20.50
15062;BMP180;7630;50.306;8.566;2023-07-16T23:18:14;98003.00;;;20.70
15062;BMP180;7630;50.306;8.566;2023-07-16T23:22:15;98006.00;;;20.50
15062;BMP180;7630;50.306;8.566;2023-07-16T23:26:17;98009.00;;;20.60
15062;BMP180;7630;50.306;8.566;2023-07-16T23:30:18;98023.00;;;20.60
15062;BMP180;7630;50.306;8.566;2023-07-16T23:34:21;98014.00;;;20.60
15062;BMP180;7630;50.306;8.566;2023-07-16T23:38:23;98015.00;;;20.80
15062;BMP180;7630;50.306;8.566;2023-07-16T23:42:24;98009.00;;;20.20